Tiempo atmosférico en la estación meteorológica de Sena de Luna, Miñera, León (1120 m.)



Fecha
DESCASC
Temp. máxima en grados centígrados (hora)
DESCASC
Temp. mínima en grados centígrados (hora)
DESCASC
Temp. media en grados centígrados
DESCASC
Racha de viento máxima en m/sg (hora)
DESCASC
Velocidad máxima media en intervalos de 10 minutos(hora)
DESCASC
Precipitaciones diarias en mm
DESCASC
Precipitaciones de 00:00 a 06:00 en mm
DESCASC
Precipitaciones de 06:00 a 12:00 en mm
DESCASC
Precipitaciones de 12:00 a 18:00 en mm
DESCASC
Precipitaciones de 18:00 a 24:00 en mm
DESCASC

Gráficas

Temp. máximas Temp. mínimas Temp. medias Precipitaciones Rachas de viento máximas Velocidades máximas media en intervalos de 10 minutos

Datos horarios

Fecha y hora oficial Temperatura (ºC) Velocidad del viento (km/h) Dirección del viento Racha (km/h) Dirección de racha Precipitación (mm) Presión (hPa) Tendencia (hPa) Humedad (%)
2019-12-15 23:00:00 6.5 20 Sur 41 Sur 2.2 -- -- 100
2019-12-15 22:00:00 6.2 17 Sur 43 Sur 1.6 -- -- 100
2019-12-15 21:00:00 6.2 15 Sur 36 Sur 1.8 -- -- 100
2019-12-15 20:00:00 6.3 13 Sudeste 40 Sur 0.6 -- -- 100
2019-12-15 19:00:00 6.3 19 Sur 46 Sur 0.8 -- -- 100
2019-12-15 18:00:00 6.3 26 Sur 46 Sur 2.2 -- -- 100
2019-12-15 17:00:00 6.3 24 Sur 49 Sur 1.2 -- -- 100
2019-12-15 16:00:00 6.3 23 Sur 40 Sur 2 -- -- 100
2019-12-15 15:00:00 6.3 17 Sur 34 Sur 0.4 -- -- 100
2019-12-15 14:00:00 6.6 13 Sur 38 Sur 0.2 -- -- 94
2019-12-15 13:00:00 6.5 25 Sur 40 Sur 1.2 -- -- 100
2019-12-15 12:00:00 6.3 27 Sur 37 Sur 1.8 -- -- 100
2019-12-15 11:00:00 6.2 23 Sur 34 Sur 1.4 -- -- 100
2019-12-15 10:00:00 6 19 Sur 41 Sur 0.8 -- -- 100
2019-12-15 09:00:00 5.9 20 Sur 36 Sudeste 0.6 -- -- 100
2019-12-15 08:00:00 5.8 14 Sur 33 Sur 0.6 -- -- 100
2019-12-15 07:00:00 6.5 18 Sur 40 Sur 0 -- -- 99
2019-12-15 06:00:00 6.5 26 Sur 43 Sur 0.2 -- -- 99
2019-12-15 05:00:00 6.4 26 Sur 45 Sur 0.4 -- -- 100
2019-12-15 04:00:00 6.7 18 Sur 45 Sur 0 -- -- 95
2019-12-15 03:00:00 7 15 Sudeste 35 Sur 0 -- -- 92
2019-12-15 02:00:00 7 17 Sur 33 Sudeste 0.2 -- -- 91
2019-12-15 01:00:00 6.9 13 Sudeste 37 Sudeste 0 -- -- 94
2019-12-15 00:00:00 6.6 14 Sudeste 38 Sur 0.4 -- -- 97
2019-12-14 23:00:00 6.5 16 Sudeste 39 Sudeste 0.4 -- -- 100
2019-12-14 22:00:00 6.6 12 Sur 41 Sur 0.2 -- -- 99
2019-12-14 21:00:00 7 14 Sur 28 Sur 0 -- -- 94
2019-12-14 20:00:00 6.8 10 Sudeste 33 Sur 0.2 -- -- 97
2019-12-14 19:00:00 7.2 13 Sudeste 28 Sudeste 0 -- -- 93
2019-12-14 18:00:00 7.7 11 Sudeste 32 Este 0 -- -- 85
2019-12-14 17:00:00 7.9 15 Sudeste 35 Sur 0 -- -- 82
2019-12-14 16:00:00 7.1 16 Sur 39 Sur 0 -- -- 97
2019-12-14 15:00:00 6.8 20 Sur 37 Sur 0 -- -- 98
2019-12-14 14:00:00 7.2 13 Sur 31 Sur 0 -- -- 91
2019-12-14 13:00:00 8.5 17 Sur 30 Sur 0 -- -- 82
2019-12-14 12:00:00 8.1 10 Sudeste 21 Sur 0 -- -- 82
2019-12-14 11:00:00 6.4 14 Sur 21 Sur 0 -- -- 93
2019-12-14 10:00:00 5.2 12 Sur 21 Sur 0 -- -- 94
2019-12-14 09:00:00 3.2 2 Sur 5 Sudeste 0 -- -- 100
2019-12-14 08:00:00 2 2 Noroeste 5 Sudoeste 0 -- -- 100
2019-12-14 07:00:00 2.2 2 Este 5 Este 0 -- -- 100
2019-12-14 06:00:00 2.8 2 Oeste 8 Oeste 0 -- -- 99
2019-12-14 05:00:00 2.4 2 Norte 5 Este 0 -- -- 96
2019-12-14 04:00:00 3.2 0 Calma 10 Sur 0 -- -- 94
2019-12-14 03:00:00 3 3 Este 10 Sur 0 -- -- 94
2019-12-14 02:00:00 4.3 4 Este 22 Sudoeste 0 -- -- 88
2019-12-14 01:00:00 6.6 10 Oeste 31 Oeste 0 -- -- 77
2019-12-14 00:00:00 6.7 11 Noroeste 38 Noroeste 0 -- -- 78
2019-12-13 23:00:00 6.6 18 Noroeste 38 Noroeste 0 -- -- 78
2019-12-13 22:00:00 7 12 Oeste 34 Oeste 0 -- -- 72
2019-12-13 21:00:00 7.4 15 Oeste 38 Oeste 0 -- -- 73
2019-12-13 20:00:00 7.8 13 Oeste 32 Oeste 0 -- -- 78
2019-12-13 19:00:00 8.1 10 Oeste 36 Oeste 0 -- -- 77
2019-12-13 18:00:00 9.2 20 Oeste 37 Oeste 0 -- -- 78
2019-12-13 17:00:00 10 14 Oeste 43 Oeste 0 -- -- 73
2019-12-13 16:00:00 10.9 12 Oeste 35 Oeste 0 -- -- 75
2019-12-13 15:00:00 11.3 12 Oeste 42 Oeste 0 -- -- 75
2019-12-13 14:00:00 12.2 18 Oeste 43 Noroeste 0 -- -- 73
2019-12-13 13:00:00 14.2 14 Oeste 45 Noroeste 0 -- -- 66
2019-12-13 12:00:00 13.8 14 Noroeste 42 Noroeste 0 -- -- 64
2019-12-13 11:00:00 13 12 Oeste 50 Noroeste 0 -- -- 68
2019-12-13 10:00:00 11 15 Noroeste 51 Oeste 0 -- -- 76
2019-12-13 09:00:00 10.3 15 Noroeste 42 Noroeste 0 -- -- 79
2019-12-13 08:00:00 8.9 14 Noroeste 43 Noroeste 0.2 -- -- 92
2019-12-13 07:00:00 8.7 17 Noroeste 48 Noroeste 0 -- -- 94
2019-12-13 06:00:00 9.1 14 Noroeste 40 Noroeste 0 -- -- 89
2019-12-13 05:00:00 9.9 16 Noroeste 42 Noroeste 0 -- -- 80
2019-12-13 04:00:00 9.7 15 Noroeste 42 Oeste 0 -- -- 83
2019-12-13 03:00:00 9.5 14 Noroeste 46 Noroeste 0 -- -- 91
2019-12-13 02:00:00 9 14 Noroeste 46 Noroeste 0.2 -- -- 96
2019-12-13 01:00:00 8.8 15 Noroeste 39 Oeste 1.2 -- -- 99
2019-12-13 00:00:00 8.9 14 Noroeste 31 Noroeste 2 -- -- 99
2019-12-12 23:00:00 8.7 9 Noroeste 27 Noroeste 2.4 -- -- 100
2019-12-12 22:00:00 8.5 9 Noroeste 31 Noroeste 2.2 -- -- 100
2019-12-12 21:00:00 8.2 6 Oeste 26 Oeste 1.6 -- -- 100
2019-12-12 20:00:00 8.2 10 Noroeste 32 Noroeste 2 -- -- 100
2019-12-12 19:00:00 7.9 13 Noroeste 33 Noroeste 3.6 -- -- 100
2019-12-12 18:00:00 7.3 8 Noroeste 23 Noroeste 2.8 -- -- 100
2019-12-12 17:00:00 5.5 3 Nordeste 7 Nordeste 2.8 -- -- 100
2019-12-12 16:00:00 3.8 0 Calma 8 Sur 1.8 -- -- 100
2019-12-12 15:00:00 3.6 3 Este 10 Noroeste 1.4 -- -- 100
2019-12-12 14:00:00 3.2 3 Norte 15 Oeste 1.2 -- -- 100
2019-12-12 13:00:00 3.5 4 Oeste 12 Sudoeste 0.4 -- -- 100
2019-12-12 12:00:00 3.3 6 Oeste 19 Sur 0.4 -- -- 99
2019-12-12 11:00:00 3.1 13 Sur 22 Sur 0.2 -- -- 100
2019-12-12 10:00:00 2.6 4 Sur 8 Sudeste 0.6 -- -- 100
2019-12-12 09:00:00 2.2 2 Norte 7 Oeste 0.2 -- -- 100
2019-12-12 08:00:00 2.1 0 Calma 6 Este 0.2 -- -- 100
2019-12-12 07:00:00 2.1 4 Este 6 Este 0.2 -- -- 100
2019-12-12 06:00:00 2.4 5 Sur 12 Sur 0 -- -- 100
2019-12-12 05:00:00 2.3 4 Sur 12 Sudoeste 0 -- -- 100
2019-12-12 04:00:00 2.5 9 Sur 14 Sur 0.2 -- -- 99
2019-12-12 03:00:00 3 5 Sur 14 Sur 0 -- -- 93
2019-12-12 02:00:00 2.8 4 Nordeste 6 Nordeste 0 -- -- 98
2019-12-12 01:00:00 3.5 4 Noroeste 15 Noroeste 0 -- -- 89
2019-12-12 00:00:00 3.8 5 Norte 15 Norte 0 -- -- 83
2019-12-11 23:00:00 3.2 3 Norte 23 Noroeste 0 -- -- 89
2019-12-11 22:00:00 4 6 Oeste 31 Noroeste 0 -- -- 78
2019-12-11 21:00:00 3.7 7 Oeste 23 Oeste 0 -- -- 79
2019-12-11 20:00:00 3.2 9 Noroeste 28 Noroeste 0 -- -- 85
2019-12-11 19:00:00 3.4 9 Oeste 27 Noroeste 0 -- -- 84
2019-12-11 18:00:00 3.8 13 Noroeste 34 Noroeste 0 -- -- 80
2019-12-11 17:00:00 4.5 9 Noroeste 33 Noroeste 0 -- -- 76
2019-12-11 16:00:00 6.1 11 Oeste 37 Noroeste 0 -- -- 66
2019-12-11 15:00:00 7 18 Oeste 40 Oeste 0 -- -- 59
2019-12-11 14:00:00 7.2 14 Oeste 50 Noroeste 0 -- -- 56
2019-12-11 13:00:00 7.2 12 Oeste 33 Oeste 0.2 -- -- 54
2019-12-11 12:00:00 6.9 11 Oeste 31 Norte 0 -- -- 59
2019-12-11 11:00:00 4.5 4 Noroeste 21 Noroeste 0 -- -- 68
2019-12-11 10:00:00 2.9 9 Oeste 25 Oeste 0 -- -- 85
2019-12-11 09:00:00 3 5 Noroeste 19 Oeste 0 -- -- 92
2019-12-11 08:00:00 3.1 8 Norte 22 Noroeste 0 -- -- 99
2019-12-11 07:00:00 3.5 8 Noroeste 21 Noroeste 0.4 -- -- 99
2019-12-11 06:00:00 3.5 7 Noroeste 14 Oeste 0.8 -- -- 100
2019-12-11 05:00:00 3 0 Calma 3 Nordeste 0.4 -- -- 100
2019-12-11 04:00:00 2.9 0 Calma 8 Norte 0.4 -- -- 100
2019-12-11 03:00:00 2.9 0 Calma 8 Este 0 -- -- 95
2019-12-11 02:00:00 2.4 3 Este 8 Este 0 -- -- 97
2019-12-11 01:00:00 2.3 0 Calma 5 Norte 0 -- -- 95
2019-12-11 00:00:00 2.9 0 Calma 6 Este 0 -- -- 94
2019-12-10 23:00:00 2.9 2 Nordeste 8 Nordeste 0 -- -- 89
2019-12-10 22:00:00 2.9 4 Nordeste 8 Este 0 -- -- 91
2019-12-10 21:00:00 3.8 5 Oeste 11 Sudoeste 0 -- -- 88
2019-12-10 20:00:00 4.3 10 Sur 18 Sur 0 -- -- 82
2019-12-10 19:00:00 3.9 4 Nordeste 6 Nordeste 0 -- -- 77
2019-12-10 18:00:00 4.9 3 Nordeste 6 Este 0 -- -- 72
2019-12-10 17:00:00 5.7 0 Calma 4 Este 0 -- -- 65
2019-12-10 16:00:00 5.9 0 Calma 4 Sudoeste 0 -- -- 65
2019-12-10 15:00:00 6.3 0 Calma 4 Oeste 0 -- -- 64
2019-12-10 14:00:00 5.8 2 Oeste 8 Norte 0 -- -- 64
2019-12-10 13:00:00 4.9 3 Nordeste 10 Norte 0 -- -- 67
2019-12-10 12:00:00 3.7 3 Norte 12 Noroeste 0 -- -- 71
2019-12-10 11:00:00 1.8 10 Norte 13 Norte 0 -- -- 83
2019-12-10 10:00:00 -0.7 6 Norte 14 Norte 0 -- -- 91
2019-12-10 09:00:00 -1.8 9 Norte 13 Norte 0 -- -- 96
2019-12-10 08:00:00 -1.9 2 Norte 18 Norte 0 -- -- 95
2019-12-10 07:00:00 -2.4 9 Norte 14 Norte 0 -- -- 99
2019-12-10 06:00:00 -2.2 7 Norte 14 Norte 0 -- -- 98
2019-12-10 05:00:00 -2.2 4 Norte 14 Norte 0 -- -- 92
2019-12-10 04:00:00 -1.4 8 Norte 13 Norte 0 -- -- 96
2019-12-10 03:00:00 -1.2 2 Noroeste 14 Norte 0 -- -- 95
2019-12-10 02:00:00 -0.5 0 Calma 8 Norte 0 -- -- 84
2019-12-10 01:00:00 -0.3 5 Norte 13 Norte 0 -- -- 85
2019-12-10 00:00:00 0.6 7 Norte 15 Norte 0 -- -- 83
2019-12-09 23:00:00 1.2 7 Norte 20 Noroeste 0 -- -- 83
2019-12-09 22:00:00 2.1 8 Norte 19 Norte 0 -- -- 80
2019-12-09 21:00:00 1.8 3 Noroeste 14 Noroeste 0 -- -- 83
2019-12-09 20:00:00 3 4 Nordeste 18 Noroeste 0 -- -- 80
2019-12-09 19:00:00 3.9 6 Norte 18 Noroeste 0 -- -- 75
2019-12-09 18:00:00 4.3 5 Norte 17 Norte 0 -- -- 72
2019-12-09 17:00:00 6.6 7 Noroeste 29 Norte 0 -- -- 68
2019-12-09 16:00:00 6.9 19 Norte 26 Norte 0 -- -- 67
2019-12-09 15:00:00 7.7 13 Noroeste 32 Noroeste 0 -- -- 65
2019-12-09 14:00:00 8.5 14 Noroeste 27 Noroeste 0 -- -- 58
2019-12-09 13:00:00 7.2 9 Noroeste 33 Noroeste 0 -- -- 62
2019-12-09 12:00:00 7 13 Noroeste 34 Noroeste 0 -- -- 60
2019-12-09 11:00:00 9.2 12 Noroeste 48 Norte 0 -- -- 50
2019-12-09 10:00:00 8.8 24 Norte 51 Nordeste 0 -- -- 40
2019-12-09 09:00:00 7.6 32 Norte 50 Noroeste 0 -- -- 42
2019-12-09 08:00:00 8.7 21 Noroeste 62 Noroeste 0 -- -- 36
2019-12-09 07:00:00 8.5 18 Noroeste 48 Noroeste 0 -- -- 34
2019-12-09 06:00:00 8.2 17 Noroeste 48 Noroeste 0 -- -- 33
2019-12-09 05:00:00 7.6 21 Norte 44 Norte 0 -- -- 33
2019-12-09 04:00:00 3 4 Este 9 Sudeste 0 -- -- 56
2019-12-09 03:00:00 0.5 4 Nordeste 7 Nordeste 0 -- -- 80
2019-12-09 02:00:00 0.7 0 Calma 4 Oeste 0 -- -- 95
2019-12-09 01:00:00 1.2 0 Calma 3 Sudoeste 0 -- -- 95
2019-12-09 00:00:00 2.3 0 Calma 10 Este 0 -- -- 93
2019-12-08 23:00:00 2.9 2 Norte 9 Norte 0 -- -- 93
2019-12-08 22:00:00 2.8 6 Norte 9 Norte 0 -- -- 89
2019-12-08 21:00:00 4.6 3 Nordeste 9 Este 0 -- -- 79
2019-12-08 20:00:00 4.6 0 Calma 9 Noroeste 0 -- -- 83
2019-12-08 19:00:00 6.1 4 Noroeste 15 Norte 0 -- -- 85
2019-12-08 18:00:00 8.4 4 Noroeste 23 Noroeste 0 -- -- 73
2019-12-08 17:00:00 12.1 15 Noroeste 36 Noroeste 0 -- -- 59
2019-12-08 16:00:00 12.1 10 Noroeste 33 Norte 0 -- -- 65
2019-12-08 15:00:00 11.7 5 Oeste 16 Oeste 0 -- -- 94
2019-12-08 14:00:00 10.6 0 Calma 9 Norte 0 -- -- 100
2019-12-08 13:00:00 9.5 3 Norte 6 Noroeste 0 -- -- 100
2019-12-08 12:00:00 8.4 2 Norte 8 Norte 0.2 -- -- 100
2019-12-08 11:00:00 6.8 2 Nordeste 8 Este 0.6 -- -- 100
2019-12-08 10:00:00 5.8 0 Calma 6 Sudoeste 0 -- -- 100
2019-12-08 09:00:00 5.2 4 Este 6 Este 0 -- -- 100
2019-12-08 08:00:00 4.8 0 Calma 6 Este 0 -- -- 100
2019-12-08 07:00:00 4.3 2 Este 5 Noroeste 0 -- -- 100
2019-12-08 06:00:00 4 0 Calma 4 Norte 0 -- -- 100
2019-12-08 05:00:00 3.7 0 Calma 3 Nordeste 0 -- -- 100
2019-12-08 04:00:00 3.4 0 Calma 4 Nordeste 0 -- -- 100
2019-12-08 03:00:00 3 0 Calma 4 Nordeste 0 -- -- 100
2019-12-08 02:00:00 3.2 0 Calma 9 Este 0 -- -- 100
2019-12-08 01:00:00 2.8 0 Calma 5 Nordeste 0 -- -- 100
2019-12-08 00:00:00 3.7 0 Calma 5 Nordeste 0 -- -- 100
2019-12-07 23:00:00 4.4 0 Calma 5 Este 0 -- -- 100
2019-12-07 22:00:00 4.9 2 Noroeste 8 Nordeste 0 -- -- 100
2019-12-07 21:00:00 6.1 0 Calma 4 Este 0 -- -- 97
2019-12-07 20:00:00 5.9 4 Nordeste 8 Este 0 -- -- 95
2019-12-07 19:00:00 8.6 4 Sur 14 Sur 0 -- -- 82
2019-12-07 18:00:00 8.9 4 Sur 18 Sur 0 -- -- 81
2019-12-07 17:00:00 10.9 6 Sur 13 Sur 0 -- -- 74
2019-12-07 16:00:00 14.4 4 Sur 7 Sur 0 -- -- 60
2019-12-07 15:00:00 10.4 6 Este 9 Este 0 -- -- 73
2019-12-07 14:00:00 12.2 4 Sudoeste 6 Sudoeste 0 -- -- 60
2019-12-07 13:00:00 11.8 3 Sur 12 Norte 0 -- -- 60
2019-12-07 12:00:00 8.5 0 Calma 10 Norte 0 -- -- 71
2019-12-07 11:00:00 6.1 0 Calma 6 Norte 0 -- -- 77
2019-12-07 10:00:00 2.4 3 Norte 9 Norte 0 -- -- 92
2019-12-07 09:00:00 1.1 6 Norte 14 Norte 0 -- -- 98
2019-12-07 08:00:00 0.9 9 Norte 15 Norte 0 -- -- 100
2019-12-07 07:00:00 1.1 3 Este 13 Noroeste 0 -- -- 98
2019-12-07 06:00:00 1.2 0 Calma 15 Norte 0 -- -- 97
2019-12-07 05:00:00 1 10 Norte 15 Norte 0 -- -- 99
2019-12-07 04:00:00 1 7 Norte 17 Norte 0 -- -- 98
2019-12-07 03:00:00 0.5 3 Nordeste 10 Norte 0 -- -- 100
2019-12-07 02:00:00 1.2 6 Norte 10 Norte 0 -- -- 97
2019-12-07 01:00:00 1.8 6 Norte 13 Norte 0 -- -- 98
2019-12-07 00:00:00 2.2 5 Norte 12 Noroeste 0 -- -- 95
2019-12-06 23:00:00 3.2 0 Calma 12 Norte 0 -- -- 95
2019-12-06 22:00:00 3.7 0 Calma 7 Noroeste 0 -- -- 93
2019-12-06 21:00:00 3.1 0 Calma 5 Norte 0 -- -- 97
2019-12-06 20:00:00 4.8 0 Calma 7 Este 0 -- -- 90
2019-12-06 19:00:00 5.3 3 Norte 7 Norte 0 -- -- 87
2019-12-06 18:00:00 6.3 4 Nordeste 9 Norte 0 -- -- 83
2019-12-06 17:00:00 11 2 Sudoeste 5 Sudoeste 0 -- -- 63
2019-12-06 16:00:00 8.3 0 Calma 4 Noroeste 0 -- -- 73
2019-12-06 15:00:00 8.6 2 Sudeste 5 Sudeste 0 -- -- 70
2019-12-06 14:00:00 6.9 2 Sudeste 7 Sudoeste 0 -- -- 75
2019-12-06 13:00:00 6.7 3 Sudoeste 7 Sudoeste 0 -- -- 79
2019-12-06 12:00:00 6.1 3 Noroeste 8 Noroeste 0 -- -- 84
2019-12-06 11:00:00 2 4 Noroeste 9 Noroeste 0 -- -- 100
2019-12-06 10:00:00 0.7 2 Norte 6 Nordeste 0 -- -- 100
2019-12-06 09:00:00 0.1 3 Norte 7 Norte 0 -- -- 100
2019-12-06 08:00:00 0.3 5 Norte 8 Norte 0 -- -- 100
2019-12-06 07:00:00 0.6 4 Noroeste 9 Norte 0 -- -- 100
2019-12-06 06:00:00 0.9 0 Calma 6 Norte 0 -- -- 100
2019-12-06 05:00:00 1.3 3 Nordeste 9 Norte 0 -- -- 100
2019-12-06 04:00:00 1.8 0 Calma 8 Noroeste 0 -- -- 100
2019-12-06 03:00:00 2.2 2 Noroeste 10 Noroeste 0 -- -- 100
2019-12-06 02:00:00 2.6 4 Norte 10 Noroeste 0 -- -- 100
2019-12-06 01:00:00 3.1 3 Norte 6 Noroeste 0 -- -- 100
2019-12-06 00:00:00 3.1 2 Sudeste 3 Sudeste 0 -- -- 100
2019-12-05 23:00:00 3.1 0 Calma 2 Norte 0 -- -- 100
2019-12-05 22:00:00 2.7 0 Calma 3 Sudoeste 0 -- -- 100
2019-12-05 21:00:00 2.7 0 Calma 4 Este 0 -- -- 100
2019-12-05 20:00:00 2.6 2 Este 5 Nordeste 0 -- -- 100
2019-12-05 19:00:00 3.9 2 Sudeste 6 Este 0 -- -- 94
2019-12-05 18:00:00 5.4 2 Nordeste 19 Noroeste 0 -- -- 89
2019-12-05 17:00:00 9.4 12 Noroeste 24 Noroeste 0 -- -- 69
2019-12-05 16:00:00 11.3 7 Noroeste 25 Noroeste 0 -- -- 63
2019-12-05 15:00:00 12.5 8 Noroeste 18 Noroeste 0 -- -- 58
2019-12-05 14:00:00 12 10 Oeste 29 Noroeste 0 -- -- 61
2019-12-05 13:00:00 12.2 8 Noroeste 16 Noroeste 0 -- -- 61
2019-12-05 12:00:00 11.7 5 Noroeste 17 Noroeste 0 -- -- 62
2019-12-05 11:00:00 10.3 6 Noroeste 18 Noroeste 0 -- -- 66
2019-12-05 10:00:00 7.5 10 Norte 20 Norte 0 -- -- 76
2019-12-05 09:00:00 4.6 9 Noroeste 30 Norte 0 -- -- 88
2019-12-05 08:00:00 4.6 17 Norte 35 Noroeste 0 -- -- 88
2019-12-05 07:00:00 4.5 18 Norte 39 Norte 0 -- -- 87
2019-12-05 06:00:00 4.7 16 Norte 35 Noroeste 0 -- -- 84
2019-12-05 05:00:00 4.8 13 Noroeste 40 Norte 0 -- -- 84
2019-12-05 04:00:00 4.8 18 Norte 53 Norte 0 -- -- 82
2019-12-05 03:00:00 4.8 26 Norte 41 Norte 0 -- -- 79
2019-12-05 02:00:00 4.1 21 Noroeste 46 Noroeste 0 -- -- 81
2019-12-05 01:00:00 3.5 22 Noroeste 48 Noroeste 0 -- -- 75
2019-12-05 00:00:00 3.7 14 Noroeste 39 Noroeste 0 -- -- 71
2019-12-04 23:00:00 4 12 Noroeste 33 Noroeste 0 -- -- 69
2019-12-04 22:00:00 4.6 12 Noroeste 32 Noroeste 0 -- -- 64
2019-12-04 21:00:00 2.4 5 Noroeste 18 Noroeste 0 -- -- 81
2019-12-04 20:00:00 3.1 6 Noroeste 21 Noroeste 0 -- -- 75
2019-12-04 19:00:00 4.1 12 Noroeste 21 Noroeste 0 -- -- 71
2019-12-04 18:00:00 4.9 8 Noroeste 21 Noroeste 0 -- -- 67
2019-12-04 17:00:00 7.2 12 Noroeste 24 Noroeste 0 -- -- 52
2019-12-04 16:00:00 11.9 12 Noroeste 24 Noroeste 0 -- -- 49
2019-12-04 15:00:00 11.5 6 Oeste 15 Noroeste 0 -- -- 50
2019-12-04 14:00:00 11 3 Este 13 Sur 0 -- -- 57
2019-12-04 13:00:00 10.1 5 Noroeste 14 Noroeste 0 -- -- 58
2019-12-04 12:00:00 8.4 5 Norte 13 Noroeste 0 -- -- 65
2019-12-04 11:00:00 4.7 6 Norte 11 Norte 0 -- -- 77
2019-12-04 10:00:00 1.5 3 Norte 15 Noroeste 0 -- -- 92
2019-12-04 09:00:00 -0.7 6 Norte 11 Norte 0 -- -- 100
2019-12-04 08:00:00 -0.1 6 Norte 10 Norte 0 -- -- 99
2019-12-04 07:00:00 -0.3 5 Norte 9 Norte 0 -- -- 100
2019-12-04 06:00:00 -0.9 0 Calma 4 Norte 0 -- -- 100
2019-12-04 05:00:00 -1.7 0 Calma 4 Este 0 -- -- 100
2019-12-04 04:00:00 -2.1 0 Calma 4 Nordeste 0 -- -- 100
2019-12-04 03:00:00 -2.1 0 Calma 4 Este 0 -- -- 100
2019-12-04 02:00:00 -1.9 0 Calma 10 Este 0 -- -- 100
2019-12-04 01:00:00 -1.4 4 Este 13 Sudeste 0 -- -- 97
2019-12-04 00:00:00 -1.4 2 Sudeste 13 Sur 0 -- -- 98
2019-12-03 23:00:00 -0.2 8 Sur 12 Sur 0 -- -- 93
2019-12-03 22:00:00 -1.1 0 Calma 6 Sudeste 0 -- -- 91
2019-12-03 21:00:00 0.4 3 Sudeste 12 Este 0 -- -- 79
2019-12-03 20:00:00 1.2 4 Sur 19 Sudeste 0 -- -- 77
2019-12-03 19:00:00 2.2 7 Sudeste 15 Sudeste 0 -- -- 73
2019-12-03 18:00:00 3.9 6 Sudeste 18 Sur 0 -- -- 67
2019-12-03 17:00:00 8.2 5 Sur 13 Sudoeste 0 -- -- 49
2019-12-03 16:00:00 11.5 5 Oeste 14 Noroeste 0 -- -- 36
2019-12-03 15:00:00 11.5 6 Noroeste 16 Noroeste 0 -- -- 40
2019-12-03 14:00:00 10.6 4 Oeste 13 Oeste 0 -- -- 40
2019-12-03 13:00:00 9.6 5 Sudoeste 10 Noroeste 0 -- -- 45
2019-12-03 12:00:00 6.7 4 Norte 15 Norte 0 -- -- 52
2019-12-03 11:00:00 4.5 6 Norte 14 Norte 0 -- -- 64
2019-12-03 10:00:00 2 3 Nordeste 14 Norte 0 -- -- 71
2019-12-03 09:00:00 -1.5 3 Noroeste 16 Oeste 0 -- -- 88
2019-12-03 08:00:00 -1.6 7 Noroeste 16 Norte 0 -- -- 86
2019-12-03 07:00:00 -1.2 10 Noroeste 20 Noroeste 0 -- -- 82
2019-12-03 06:00:00 -0.1 10 Noroeste 22 Noroeste 0 -- -- 78
2019-12-03 05:00:00 -0.2 12 Noroeste 24 Noroeste 0 -- -- 79
2019-12-03 04:00:00 -0.1 11 Noroeste 23 Noroeste 0 -- -- 80
2019-12-03 03:00:00 -0.1 4 Noroeste 23 Noroeste 0 -- -- 83
2019-12-03 02:00:00 0 5 Noroeste 27 Noroeste 0 -- -- 81
2019-12-03 01:00:00 0.6 11 Oeste 29 Noroeste 0 -- -- 77
2019-12-03 00:00:00 0.9 14 Noroeste 31 Noroeste 0 -- -- 75
2019-12-02 23:00:00 0.9 10 Noroeste 30 Noroeste 0 -- -- 77
2019-12-02 22:00:00 1.1 12 Noroeste 35 Noroeste 0 -- -- 80
2019-12-02 21:00:00 1.1 13 Noroeste 30 Norte 0 -- -- 81
2019-12-02 20:00:00 2 15 Norte 32 Norte 0 -- -- 84
2019-12-02 19:00:00 2.1 17 Norte 33 Norte 0 -- -- 83
2019-12-02 18:00:00 2.7 12 Noroeste 38 Noroeste 0.2 -- -- 89
2019-12-02 17:00:00 3.8 15 Norte 33 Norte 0 -- -- 86
2019-12-02 16:00:00 4.1 14 Norte 40 Norte 0 -- -- 87
2019-12-02 15:00:00 3.3 15 Norte 41 Noroeste 0.2 -- -- 90
2019-12-02 14:00:00 4.3 19 Norte 35 Noroeste 0 -- -- 86
2019-12-02 13:00:00 4.3 27 Nordeste 50 Nordeste 0 -- -- 87
2019-12-02 12:00:00 5.3 10 Norte 44 Norte 0.2 -- -- 83
2019-12-02 11:00:00 6.1 14 Norte 38 Norte 0 -- -- 80
2019-12-02 10:00:00 4.8 23 Norte 46 Norte 0 -- -- 82
2019-12-02 09:00:00 3.4 16 Norte 38 Noroeste 0.2 -- -- 91
2019-12-02 08:00:00 3.1 14 Norte 45 Norte 0 -- -- 94
2019-12-02 07:00:00 3.5 18 Norte 35 Nordeste 0 -- -- 87
2019-12-02 06:00:00 3 18 Norte 35 Noroeste 0 -- -- 91
2019-12-02 05:00:00 2.7 17 Norte 45 Noroeste 0 -- -- 88
2019-12-02 04:00:00 2.5 10 Noroeste 50 Noroeste 0 -- -- 91
2019-12-02 03:00:00 2.4 18 Norte 43 Norte 0 -- -- 90
2019-12-02 02:00:00 2.1 19 Norte 39 Noroeste 0.2 -- -- 97
2019-12-02 01:00:00 2.2 20 Norte 40 Norte 0 -- -- 93
2019-12-02 00:00:00 2.1 18 Norte 39 Noroeste 0.2 -- -- 92
2019-12-01 23:00:00 2.6 18 Norte 47 Norte 0.2 -- -- 89
2019-12-01 22:00:00 2.5 23 Norte 47 Norte 0.6 -- -- 94
2019-12-01 21:00:00 3.1 21 Norte 40 Nordeste 1.2 -- -- 95
2019-12-01 20:00:00 3.3 11 Norte 30 Norte 0.8 -- -- 98
2019-12-01 19:00:00 3.5 19 Norte 33 Norte 0.8 -- -- 96
2019-12-01 18:00:00 3.9 14 Norte 33 Norte 0.2 -- -- 94
2019-12-01 17:00:00 3.9 11 Norte 31 Noroeste 0.2 -- -- 95
2019-12-01 16:00:00 4.2 14 Norte 30 Norte 0 -- -- 93
2019-12-01 15:00:00 5.7 15 Norte 28 Norte 0 -- -- 85
2019-12-01 14:00:00 5.7 16 Norte 29 Norte 0 -- -- 87
2019-12-01 13:00:00 6.5 7 Norte 28 Norte 0 -- -- 88
2019-12-01 12:00:00 5.6 10 Nordeste 23 Nordeste 0 -- -- 88
2019-12-01 11:00:00 5.4 4 Noroeste 20 Nordeste 0 -- -- 95
2019-12-01 10:00:00 3.7 12 Nordeste 21 Nordeste 0 -- -- 100
2019-12-01 09:00:00 3.1 18 Nordeste 23 Nordeste 0.4 -- -- 100
2019-12-01 08:00:00 3.4 5 Nordeste 11 Nordeste 0.4 -- -- 100
2019-12-01 07:00:00 3.3 3 Sudeste 13 Sudeste 0.8 -- -- 100
2019-12-01 06:00:00 3.5 7 Sudeste 16 Este 1.2 -- -- 100
2019-12-01 05:00:00 3.6 7 Sudeste 24 Este 0.6 -- -- 100
2019-12-01 04:00:00 3.3 11 Este 23 Este 0 -- -- 100
2019-12-01 03:00:00 3.3 7 Sudeste 27 Sur 0.2 -- -- 100
2019-12-01 02:00:00 3.5 7 Sudeste 26 Sur 0.6 -- -- 100
2019-12-01 01:00:00 3.9 13 Sudeste 30 Sudeste 0.8 -- -- 96
2019-12-01 00:00:00 3.8 10 Sudeste 22 Sudeste 0.2 -- -- 97
2019-11-30 23:00:00 4.1 8 Sur 19 Sur 0.2 -- -- 98
2019-11-30 22:00:00 4 8 Sudoeste 20 Sur 0 -- -- 100
2019-11-30 21:00:00 4 8 Sur 23 Sur 0 -- -- 96
2019-11-30 20:00:00 4.6 16 Sur 23 Sudoeste 0 -- -- 89
2019-11-30 19:00:00 5 14 Sur 30 Sudoeste 0 -- -- 85
2019-11-30 18:00:00 5.8 10 Sudoeste 27 Sur 0 -- -- 73
2019-11-30 17:00:00 8.4 6 Sudoeste 18 Sudoeste 0 -- -- 57
2019-11-30 16:00:00 10.8 8 Oeste 28 Oeste 0 -- -- 50
2019-11-30 15:00:00 10.6 12 Oeste 37 Oeste 0 -- -- 53
2019-11-30 14:00:00 9.4 19 Oeste 38 Oeste 0 -- -- 56
2019-11-30 13:00:00 7.7 11 Oeste 32 Oeste 0 -- -- 77
2019-11-30 12:00:00 8.9 20 Oeste 42 Oeste 0 -- -- 66
2019-11-30 11:00:00 8.3 17 Oeste 37 Sudoeste 0.2 -- -- 85
2019-11-30 10:00:00 8.4 13 Sudoeste 35 Sur 2 -- -- 100
2019-11-30 09:00:00 9.5 22 Sur 37 Sur 0.2 -- -- 99
2019-11-30 08:00:00 8.7 18 Sur 31 Sudoeste 0.4 -- -- 100
2019-11-30 07:00:00 8 8 Sudoeste 22 Sur 2 -- -- 100
2019-11-30 06:00:00 7.6 12 Sur 25 Sur 1.6 -- -- 100
2019-11-30 05:00:00 7.3 14 Sudoeste 26 Sur 1.4 -- -- 100
2019-11-30 04:00:00 7.1 14 Sur 19 Sur 1.6 -- -- 100
2019-11-30 03:00:00 6.8 15 Sur 19 Sudoeste 1 -- -- 100
2019-11-30 02:00:00 7 6 Sur 13 Sudoeste 1 -- -- 100
2019-11-30 01:00:00 7.2 4 Sur 14 Sur 0 -- -- 100
2019-11-30 00:00:00 7.5 3 Este 9 Sur 0 -- -- 100
2019-11-29 23:00:00 6.7 2 Norte 5 Nordeste 0 -- -- 100
2019-11-29 22:00:00 5.6 2 Nordeste 6 Nordeste 0 -- -- 100
2019-11-29 21:00:00 5.7 2 Sudeste 7 Este 0 -- -- 100
2019-11-29 20:00:00 6 2 Sudeste 12 Sur 0 -- -- 100
2019-11-29 19:00:00 8.4 9 Sur 22 Sur 0 -- -- 95
2019-11-29 18:00:00 9.1 6 Sur 14 Sur 0 -- -- 75
2019-11-29 17:00:00 11.5 6 Sudoeste 10 Sudeste 0 -- -- 45
2019-11-29 16:00:00 14.2 0 Calma 6 Sudoeste 0 -- -- 54
2019-11-29 15:00:00 14.4 0 Calma 9 Sudoeste 0 -- -- 54
2019-11-29 14:00:00 11.6 4 Sudoeste 9 Sudoeste 0 -- -- 65
2019-11-29 13:00:00 10.4 5 Sudoeste 12 Norte 0 -- -- 73
2019-11-29 12:00:00 9.3 4 Nordeste 10 Norte 0 -- -- 82
2019-11-29 11:00:00 8.2 3 Sudeste 6 Este 0 -- -- 85
2019-11-29 10:00:00 7.1 0 Calma 7 Norte 0 -- -- 98
2019-11-29 09:00:00 1.8 5 Norte 13 Norte 0 -- -- 100
2019-11-29 08:00:00 2.2 3 Nordeste 7 Norte 0 -- -- 100
2019-11-29 07:00:00 2.5 4 Noroeste 12 Norte 0 -- -- 100
2019-11-29 06:00:00 3.2 0 Calma 10 Noroeste 0.2 -- -- 100
2019-11-29 05:00:00 2.9 2 Noroeste 4 Este 0 -- -- 100
2019-11-29 04:00:00 3.8 2 Nordeste 7 Nordeste 0 -- -- 100
2019-11-29 03:00:00 4.7 3 Nordeste 9 Nordeste 0 -- -- 100
2019-11-29 02:00:00 5.9 0 Calma 4 Sudoeste 0 -- -- 100
2019-11-29 01:00:00 6.3 3 Nordeste 5 Nordeste 0 -- -- 100
2019-11-29 00:00:00 6.4 3 Este 6 Sur 0 -- -- 100
2019-11-28 23:00:00 7.1 2 Sudoeste 5 Sudoeste 0 -- -- 100
2019-11-28 22:00:00 7.4 0 Calma 4 Este 0 -- -- 100
2019-11-28 21:00:00 7.5 0 Calma 16 Sudoeste 0 -- -- 100
2019-11-28 20:00:00 7.9 12 Sudoeste 19 Sur 0 -- -- 100
2019-11-28 19:00:00 8.1 9 Sur 16 Sudeste 0 -- -- 100
2019-11-28 18:00:00 7.7 4 Sudeste 13 Sudeste 0 -- -- 100
2019-11-28 17:00:00 7.4 2 Sudoeste 6 Oeste 0 -- -- 100
2019-11-28 16:00:00 7.9 4 Oeste 15 Oeste 0 -- -- 94
2019-11-28 15:00:00 9.7 9 Oeste 24 Sudoeste 0 -- -- 77
2019-11-28 14:00:00 10.5 10 Sur 35 Sudoeste 0 -- -- 77
2019-11-28 13:00:00 9.1 14 Sur 38 Sudoeste 0 -- -- 100
2019-11-28 12:00:00 9 14 Sur 24 Sur 0 -- -- 100
2019-11-28 11:00:00 9.4 6 Sur 24 Sur 0 -- -- 94
2019-11-28 10:00:00 7.7 9 Sur 21 Sur 0 -- -- 100
2019-11-28 09:00:00 7.2 12 Sur 16 Sur 0 -- -- 100
2019-11-28 08:00:00 6.7 6 Sur 13 Sur 0 -- -- 100
2019-11-28 07:00:00 6.4 3 Sur 16 Sur 0 -- -- 100
2019-11-28 06:00:00 6.6 9 Sur 16 Sur 0 -- -- 100
2019-11-28 05:00:00 6.2 4 Sudeste 11 Sur 0 -- -- 100
2019-11-28 04:00:00 5.3 3 Sudeste 17 Sur 0 -- -- 100
2019-11-28 03:00:00 4.8 2 Nordeste 13 Noroeste 0 -- -- 100
2019-11-28 02:00:00 5.7 4 Este 24 Sur 0 -- -- 100
2019-11-28 01:00:00 5.8 3 Sur 17 Sur 0 -- -- 100
2019-11-28 00:00:00 6.1 12 Sur 21 Sur 0 -- -- 100
2019-11-27 23:00:00 6.1 11 Sur 22 Sur 0 -- -- 100
2019-11-27 22:00:00 6 12 Sur 31 Sur 0.4 -- -- 100
2019-11-27 21:00:00 5.9 8 Sur 26 Sur 0.4 -- -- 100
2019-11-27 20:00:00 5.9 14 Sur 27 Sur 0.2 -- -- 98
2019-11-27 19:00:00 5.9 12 Sur 29 Sur 0.2 -- -- 98
2019-11-27 18:00:00 6.1 10 Sur 20 Sur 0 -- -- 96
2019-11-27 17:00:00 5.8 2 Oeste 18 Sur 0.2 -- -- 94
2019-11-27 16:00:00 6.5 15 Sur 24 Sur 0 -- -- 90
2019-11-27 15:00:00 7 17 Sudoeste 36 Oeste 0.2 -- -- 84
2019-11-27 14:00:00 7.3 11 Sudoeste 24 Sur 0 -- -- 95
2019-11-27 06:00:00 -- -- -- -- -- -- -- -- --
2019-11-27 05:00:00 -- -- -- -- -- -- -- -- --
2019-11-27 04:00:00 -- -- -- -- -- -- -- -- --
2019-11-27 03:00:00 -- 12 Sudeste 31 Sur 0.2 -- -- --
2019-11-27 02:00:00 -- 9 Sudeste 40 Sur 0.2 -- -- --
2019-11-27 01:00:00 -- 14 Sur 29 Sur 0 -- -- --
2019-11-27 00:00:00 -- 12 Sur 36 Sudoeste 0 -- -- --
2019-11-26 23:00:00 -- 17 Oeste 45 Oeste 0 -- -- --
2019-11-26 22:00:00 -- 25 Oeste 49 Oeste 0 -- -- --
2019-11-26 21:00:00 -- 31 Oeste 55 Oeste 0.2 -- -- --
2019-11-26 20:00:00 -- 20 Sudoeste 84 Sudoeste 1 -- -- --
2019-11-26 19:00:00 -- 30 Sudoeste 73 Sudoeste 1.4 -- -- --
2019-11-26 18:00:00 -- 21 Sudoeste 60 Sur 0 -- -- --
2019-11-26 17:00:00 -- 31 Sur 51 Sur 0 -- -- --
2019-11-26 16:00:00 -- 27 Sudoeste 53 Sur 0 -- -- --
2019-11-26 15:00:00 -- 31 Sur 53 Sur 0 -- -- --
2019-11-26 14:00:00 -- 19 Sudoeste 31 Sur 0 -- -- --
2019-11-26 13:00:00 -- 22 Sudoeste 44 Sur 0 -- -- --
2019-11-26 12:00:00 -- 28 Sudoeste 48 Sur 0 -- -- --
2019-11-26 11:00:00 -- 23 Sur 38 Sur 0 -- -- --
2019-11-26 10:00:00 -- 21 Sur 36 Sur 0 -- -- --
2019-11-26 09:00:00 -- 20 Sudoeste 30 Sur 0 -- -- --
2019-11-26 08:00:00 -- 11 Sur 24 Sur 0 -- -- --
2019-11-26 07:00:00 -- 21 Sur 31 Sudoeste 0 -- -- --
2019-11-26 06:00:00 -- 17 Sur 27 Sudoeste 0 -- -- --
2019-11-26 05:00:00 -- 4 Este 23 Sur 0 -- -- --
2019-11-26 04:00:00 -- 4 Este 11 Este 0 -- -- --
2019-11-26 03:00:00 -- 3 Sudeste 13 Sur 0 -- -- --
2019-11-26 02:00:00 -- 4 Sudoeste 19 Sur 0 -- -- --
2019-11-26 01:00:00 -- 6 Sur 11 Sur 0 -- -- --
2019-11-26 00:00:00 -- 3 Este 4 Este 0 -- -- --
2019-11-25 23:00:00 -- 0 Calma 4 Nordeste 0 -- -- --
2019-11-25 22:00:00 -- 0 Calma 8 Este 0 -- -- --
2019-11-25 21:00:00 -- 0 Calma 8 Nordeste 0 -- -- --
2019-11-25 20:00:00 -- 4 Nordeste 10 Nordeste 0 -- -- --
2019-11-25 19:00:00 -- 2 Este 7 Este 0 -- -- --
2019-11-25 18:00:00 -- 0 Calma 5 Noroeste 0 -- -- --
2019-11-25 17:00:00 -- 2 Sudoeste 5 Sur 0 -- -- --
2019-11-25 16:00:00 -- 2 Noroeste 6 Oeste 0 -- -- --
2019-11-25 15:00:00 -- 2 Sudoeste 8 Noroeste 0 -- -- --
2019-11-25 14:00:00 -- 4 Norte 8 Norte 0 -- -- --
2019-11-25 13:00:00 -- 0 Calma 5 Sur 0 -- -- --
2019-11-25 12:00:00 -- 4 Sudeste 6 Sudeste 0 -- -- --
2019-11-25 11:00:00 -- 0 Calma 5 Sudoeste 0 -- -- --
2019-11-25 10:00:00 -- 2 Sudoeste 5 Oeste 0 -- -- --
2019-11-25 09:00:00 -- 4 Este 12 Este 0 -- -- --
2019-11-25 08:00:00 -- 3 Este 8 Este 0 -- -- --
2019-11-25 07:00:00 -- 4 Este 15 Sudeste 0 -- -- --
2019-11-25 06:00:00 -- 6 Nordeste 10 Este 0 -- -- --
2019-11-25 05:00:00 -- 5 Nordeste 12 Este 0 -- -- --
2019-11-25 04:00:00 -- 6 Sudeste 22 Sur 0 -- -- --
2019-11-25 03:00:00 -- 5 Este 14 Sur 0 -- -- --
2019-11-25 02:00:00 -- 9 Sur 32 Sur 0 -- -- --
2019-11-25 01:00:00 -- 21 Sur 27 Sur 0 -- -- --
2019-11-25 00:00:00 -- 5 Sur 21 Sur 0 -- -- --
2019-11-24 23:00:00 -- 13 Sur 21 Sur 0 -- -- --
2019-11-24 22:00:00 -- 9 Sur 26 Sur 0 -- -- --
2019-11-24 21:00:00 -- 13 Sudoeste 24 Sur 0 -- -- --
2019-11-24 20:00:00 -- 20 Sur 27 Sur 0 -- -- --
2019-11-24 19:00:00 -- 15 Sur 25 Sur 0 -- -- --
2019-11-24 18:00:00 -- 5 Sur 18 Sudoeste 0 -- -- --
2019-11-24 17:00:00 -- 7 Sudeste 24 Sur 0 -- -- --
2019-11-24 16:00:00 -- 7 Sudeste 20 Sur 0 -- -- --
2019-11-24 15:00:00 -- 9 Sudeste 25 Sur 0 -- -- --
2019-11-24 14:00:00 -- 12 Sur 19 Sur 0 -- -- --
2019-11-24 13:00:00 -- 3 Sur 8 Sur 0 -- -- --
2019-11-24 12:00:00 -- 3 Sur 9 Sudoeste 0 -- -- --
2019-11-24 11:00:00 -- 0 Calma 6 Nordeste 0 -- -- --
2019-11-24 10:00:00 -- 0 Calma 5 Este 0 -- -- --
2019-11-24 09:00:00 -- 0 Calma 10 Sur 0 -- -- --
2019-11-24 08:00:00 -- 0 Calma 14 Norte 0 -- -- --
2019-11-24 07:00:00 -- 7 Norte 12 Norte 0 -- -- --
2019-11-24 06:00:00 -- 4 Norte 8 Norte 0 -- -- --
2019-11-24 05:00:00 -- 3 Noroeste 8 Nordeste 0 -- -- --
2019-11-24 04:00:00 -- 2 Nordeste 14 Noroeste 0 -- -- --
2019-11-24 03:00:00 -- 6 Norte 17 Oeste 0 -- -- --
2019-11-24 02:00:00 -- 6 Noroeste 21 Oeste 0 -- -- --
2019-11-24 01:00:00 -- 6 Oeste 23 Oeste 0 -- -- --
2019-11-24 00:00:00 -- 5 Oeste 28 Noroeste 0 -- -- --
2019-11-23 23:00:00 -- 11 Oeste 25 Noroeste 0 -- -- --
2019-11-23 22:00:00 -- 5 Noroeste 27 Noroeste 0 -- -- --
2019-11-23 21:00:00 -- 8 Noroeste 27 Noroeste 0 -- -- --
2019-11-23 20:00:00 -- 12 Noroeste 31 Noroeste 0 -- -- --
2019-11-23 19:00:00 -- 13 Norte 40 Norte 0 -- -- --
2019-11-23 18:00:00 -- 19 Norte 41 Noroeste 0.4 -- -- --
2019-11-23 17:00:00 -- 12 Noroeste 38 Noroeste 0 -- -- --
2019-11-23 16:00:00 -- 11 Noroeste 36 Norte 0 -- -- --
2019-11-23 15:00:00 -- 12 Norte 31 Noroeste 0.2 -- -- --
2019-11-23 14:00:00 -- 12 Noroeste 31 Noroeste 0.6 -- -- --
2019-11-23 13:00:00 -- 13 Oeste 33 Noroeste 0.2 -- -- --
2019-11-23 12:00:00 -- 15 Noroeste 33 Oeste 0.2 -- -- --
2019-11-23 11:00:00 -- 8 Oeste 28 Noroeste 1.2 -- -- --
2019-11-23 10:00:00 -- 12 Oeste 42 Norte 0 -- -- --
2019-11-23 09:00:00 -- 5 Oeste 54 Noroeste 0 -- -- --
2019-11-23 08:00:00 -- 12 Noroeste 45 Noroeste 0 -- -- --
2019-11-23 07:00:00 -- 19 Noroeste 57 Oeste 0 -- -- --
2019-11-23 06:00:00 -- 17 Noroeste 44 Noroeste 0 -- -- --
2019-11-23 05:00:00 -- 8 Oeste 34 Noroeste 0.4 -- -- --
2019-11-23 04:00:00 -- 11 Noroeste 34 Noroeste 1.8 -- -- --
2019-11-23 03:00:00 -- 12 Oeste 42 Noroeste 3.4 -- -- --
2019-11-23 02:00:00 -- 8 Oeste 24 Norte 2 -- -- --
2019-11-23 01:00:00 -- 3 Noroeste 18 Noroeste 2.2 -- -- --
2019-11-23 00:00:00 -- 3 Oeste 25 Sur 1.4 -- -- --
2019-11-22 23:00:00 -- 9 Sur 25 Sur 0.6 -- -- --
2019-11-22 22:00:00 -- 8 Sudeste 18 Sur 1.2 -- -- --
2019-11-22 21:00:00 -- 7 Sur 26 Sur 1.4 -- -- --
2019-11-22 20:00:00 -- 14 Este 43 Sur 0.8 -- -- --
2019-11-22 19:00:00 -- 22 Sur 44 Sur 0.6 -- -- --
2019-11-22 18:00:00 -- 27 Sur 44 Sudoeste 0.2 -- -- --
2019-11-22 17:00:00 -- 22 Sur 34 Sudoeste 0 -- -- --
2019-11-22 16:00:00 -- 18 Sur 48 Sur 0.8 -- -- --
2019-11-22 15:00:00 -- 19 Sudoeste 45 Sudoeste 0.8 -- -- --
2019-11-22 14:00:00 -- 8 Sur 34 Sudeste 1.8 -- -- --
2019-11-22 13:00:00 -- 21 Sur 44 Sur 1.4 -- -- --
2019-11-22 12:00:00 -- 19 Sudeste 50 Sudeste 2.8 -- -- --
2019-11-22 11:00:00 -- 12 Sudeste 46 Este 3.8 -- -- --
2019-11-22 10:00:00 -- 25 Sudeste 60 Sudeste 2.4 -- -- --
2019-11-22 09:00:00 -- 30 Sudeste 60 Sudeste 1.4 -- -- --
2019-11-22 08:00:00 -- 19 Sudeste 47 Sur 3.2 -- -- --
2019-11-22 07:00:00 -- 18 Sudeste 46 Sur 2.2 -- -- --
2019-11-22 06:00:00 -- 19 Sudeste 42 Sudeste 2.8 -- -- --
2019-11-22 05:00:00 -- 18 Sur 41 Sudeste 1 -- -- --
2019-11-22 04:00:00 -- 19 Sudeste 46 Sur 0.4 -- -- --
2019-11-22 03:00:00 -- 15 Sur 34 Sudeste 0 -- -- --
2019-11-22 02:00:00 -- 17 Sur 30 Sur 0 -- -- --
2019-11-22 01:00:00 -- 15 Sur 21 Sudoeste 0 -- -- --
2019-11-22 00:00:00 -- 9 Sur 19 Sur 0 -- -- --
2019-11-21 23:00:00 -- 11 Sur 18 Sudoeste 0 -- -- --
2019-11-21 22:00:00 -- 13 Sur 20 Sur 0 -- -- --
2019-11-21 21:00:00 -- 10 Sudeste 19 Sudeste 0 -- -- --
2019-11-21 20:00:00 -- 8 Sur 20 Sudoeste 0 -- -- --
2019-11-21 19:00:00 -- 7 Sudeste 13 Sur 0 -- -- --
2019-11-21 18:00:00 -- 6 Sudeste 10 Sur 0 -- -- --
2019-11-21 17:00:00 -- 3 Sur 18 Oeste 0 -- -- --
2019-11-21 16:00:00 -- 5 Noroeste 15 Sudoeste 0 -- -- --
2019-11-21 15:00:00 -- 8 Sudoeste 21 Sur 0 -- -- --
2019-11-21 14:00:00 -- 8 Sur 16 Oeste 0 -- -- --
2019-11-21 13:00:00 -- 12 Sur 22 Sur 0 -- -- --
2019-11-21 12:00:00 -- 8 Sur 18 Sur 0 -- -- --
2019-11-21 11:00:00 -- 12 Sur 23 Sudoeste 0 -- -- --
2019-11-21 10:00:00 -- 9 Sur 16 Sur 0 -- -- --
2019-11-21 09:00:00 -- 5 Sur 19 Sudoeste 0 -- -- --
2019-11-21 08:00:00 -- -- -- -- -- -- -- -- --
2019-11-21 07:00:00 -- -- -- -- -- -- -- -- --
2019-11-21 06:00:00 -- -- -- -- -- -- -- -- --
2019-11-21 05:00:00 -- -- -- -- -- -- -- -- --
2019-11-21 04:00:00 -- -- -- -- -- -- -- -- --
2019-11-21 03:00:00 -- -- -- -- -- -- -- -- --
2019-11-21 02:00:00 -- -- -- -- -- -- -- -- --
2019-11-21 01:00:00 -- -- -- -- -- -- -- -- --
2019-11-21 00:00:00 -- -- -- -- -- -- -- -- --
2019-11-20 23:00:00 -- -- -- -- -- -- -- -- --
2019-11-20 22:00:00 -- -- -- -- -- -- -- -- --
2019-11-20 21:00:00 -- -- -- -- -- -- -- -- --
2019-11-20 20:00:00 -- 10 Sur 22 Sur 0.2 -- -- --
2019-11-20 19:00:00 -- 12 Sur 23 Sudeste 0.2 -- -- --
2019-11-20 18:00:00 -- 5 Sur 9 Sudoeste 0 -- -- --
2019-11-20 17:00:00 -- 3 Sudeste 12 Sudeste 0.2 -- -- --
2019-11-20 16:00:00 -- 4 Sudoeste 10 Oeste 1.2 -- -- --
2019-11-20 15:00:00 -- 2 Oeste 12 Sur 1.2 -- -- --
2019-11-20 14:00:00 -- 8 Sudoeste 17 Sudoeste 0.2 -- -- --
2019-11-20 13:00:00 -- 13 Sudoeste 21 Sudoeste 0.8 -- -- --
2019-11-20 12:00:00 -- 13 Sudoeste 20 Sudoeste 0.2 -- -- --
2019-11-20 11:00:00 -- 6 Sudoeste 15 Sudoeste 0.2 -- -- --
2019-11-20 10:00:00 -- 7 Sudoeste 17 Sudoeste 0.4 -- -- --
2019-11-20 09:00:00 -- 9 Sur 16 Sur 0 -- -- --
2019-11-20 08:00:00 -- 9 Sudoeste 18 Sur 0.2 -- -- --
2019-11-20 07:00:00 -- 7 Sur 11 Sur 0.2 -- -- --
2019-11-20 06:00:00 -- 3 Sur 14 Sur 0.2 -- -- --
2019-11-20 05:00:00 -- 7 Sur 17 Sur 0.4 -- -- --
2019-11-20 04:00:00 -- 6 Este 11 Nordeste 0 -- -- --
2019-11-20 03:00:00 -- 8 Sur 12 Sur -- -- -- --
2019-11-20 02:00:00 -- 4 Nordeste 9 Sur 0 -- -- --
2019-11-20 01:00:00 -- 4 Sudeste 12 Sur 0.4 -- -- --
2019-11-20 00:00:00 -- 6 Sur 12 Sur 0.2 -- -- --
2019-11-19 23:00:00 -- 0 Calma 13 Sudoeste 0 -- -- --
2019-11-19 22:00:00 -- 5 Sudeste 11 Sur 0 -- -- --
2019-11-19 21:00:00 -- 0 Calma 9 Este 0 -- -- --
2019-11-19 20:00:00 -- 3 Nordeste 7 Norte 0 -- -- --
2019-11-19 19:00:00 -- 2 Norte 8 Nordeste 0 -- -- --
2019-11-19 18:00:00 -- 2 Norte 4 Oeste 0 -- -- --
2019-11-19 17:00:00 -- 2 Norte 4 Norte 0 -- -- --
2019-11-19 16:00:00 -- 0 Calma 6 Norte 0 -- -- --
2019-11-19 15:00:00 -- 4 Norte 8 Norte 0 -- -- --
2019-11-19 14:00:00 -- 4 Norte 8 Norte 0 -- -- --
2019-11-19 13:00:00 -- 4 Noroeste 10 Norte 0 -- -- --
2019-11-19 12:00:00 -- 6 Norte 9 Norte 0.2 -- -- --
2019-11-19 11:00:00 -- 4 Norte 8 Norte 0 -- -- --
2019-11-19 10:00:00 -- 4 Norte 10 Norte 0 -- -- --
2019-11-19 09:00:00 -- 3 Norte 6 Norte 0 -- -- --
2019-11-19 08:00:00 -- 5 Norte 9 Norte 0 -- -- --
2019-11-19 07:00:00 -- 3 Norte 7 Norte 0 -- -- --
2019-11-19 06:00:00 -- 3 Norte 6 Norte 0 -- -- --
2019-11-19 05:00:00 -- 4 Norte 7 Norte 0 -- -- --
2019-11-19 04:00:00 -- 6 Norte 10 Norte 0 -- -- --
2019-11-19 03:00:00 -- 5 Norte 10 Norte 0 -- -- --
2019-11-19 02:00:00 -- 3 Norte 9 Norte 0 -- -- --
2019-11-19 01:00:00 -- 2 Norte 8 Nordeste 0 -- -- --
2019-11-19 00:00:00 -- 5 Noroeste 10 Norte 0 -- -- --
2019-11-18 23:00:00 -- 2 Noroeste 7 Nordeste 0 -- -- --
2019-11-18 22:00:00 -- 2 Nordeste 6 Norte 0 -- -- --
2019-11-18 21:00:00 -- 6 Norte 9 Noroeste 0 -- -- --
2019-11-18 20:00:00 -- 2 Este 5 Norte 0.2 -- -- --
2019-11-18 19:00:00 -- 0 Calma 8 Norte 0 -- -- --
2019-11-18 18:00:00 -- 4 Norte 13 Noroeste 0.2 -- -- --
2019-11-18 17:00:00 -- 5 Norte 12 Noroeste 0 -- -- --
2019-11-18 16:00:00 -- 2 Nordeste 14 Noroeste 0 -- -- --
2019-11-18 15:00:00 -- 5 Noroeste 15 Oeste 0 -- -- --
2019-11-18 14:00:00 -- 9 Norte 14 Nordeste 0 -- -- --
2019-11-18 13:00:00 -- 6 Nordeste 8 Nordeste 0.4 -- -- --
2019-11-18 12:00:00 -- 4 Nordeste 15 Norte 0 -- -- --
2019-11-18 11:00:00 -- 4 Noroeste 15 Noroeste 0 -- -- --
2019-11-18 10:00:00 -- 6 Noroeste 15 Noroeste 0.4 -- -- --
2019-11-18 09:00:00 -- 4 Oeste 12 Oeste 0.2 -- -- --
2019-11-18 08:00:00 -- 4 Norte 16 Noroeste 0.2 -- -- --
2019-11-18 07:00:00 -- 6 Noroeste 17 Noroeste 0.6 -- -- --
2019-11-18 06:00:00 -- 6 Noroeste 20 Noroeste 0.4 -- -- --
2019-11-18 05:00:00 -- 3 Noroeste 22 Norte 0.2 -- -- --
2019-11-18 04:00:00 -- 8 Norte 14 Noroeste 0.6 -- -- --
2019-11-18 03:00:00 -- 6 Noroeste 40 Noroeste 0.4 -- -- --
2019-11-18 02:00:00 -- 19 Norte 39 Noroeste 0.2 -- -- --
2019-11-18 01:00:00 -- 6 Noroeste 20 Nordeste 0.2 -- -- --
2019-11-18 00:00:00 -- 5 Oeste 31 Noroeste 0.2 -- -- --
2019-11-17 23:00:00 -- 5 Noroeste 23 Noroeste 0.6 -- -- --
2019-11-17 22:00:00 -- 8 Noroeste 31 Norte 1.8 -- -- --
2019-11-17 21:00:00 -- 11 Noroeste 39 Oeste 2.2 -- -- --
2019-11-17 20:00:00 -- 13 Noroeste 28 Noroeste 0.4 -- -- --
2019-11-17 19:00:00 -- 7 Noroeste 31 Noroeste 0.2 -- -- --
2019-11-17 18:00:00 -- 12 Noroeste 36 Noroeste 0 -- -- --
2019-11-17 17:00:00 -- 14 Noroeste 26 Noroeste 0 -- -- --
2019-11-17 16:00:00 -- -- -- -- -- -- -- -- --
2019-11-17 15:00:00 -- -- -- -- -- -- -- -- --
2019-11-17 14:00:00 -- -- -- -- -- -- -- -- --
2019-11-17 13:00:00 -- -- -- -- -- -- -- -- --
2019-11-17 12:00:00 -- -- -- -- -- -- -- -- --
2019-11-17 11:00:00 -- -- -- -- -- -- -- -- --
2019-11-17 10:00:00 -- -- -- -- -- -- -- -- --
2019-11-17 09:00:00 -- -- -- -- -- -- -- -- --
2019-11-17 08:00:00 -- -- -- -- -- -- -- -- --
2019-11-17 07:00:00 -- -- -- -- -- -- -- -- --
2019-11-17 06:00:00 -- -- -- -- -- -- -- -- --
2019-11-17 05:00:00 -- -- -- -- -- -- -- -- --
2019-11-17 04:00:00 -- -- -- -- -- -- -- -- --
2019-11-17 03:00:00 -- -- -- -- -- -- -- -- --
2019-11-17 02:00:00 -- -- -- -- -- -- -- -- --
2019-11-17 01:00:00 -- -- -- -- -- -- -- -- --
2019-11-17 00:00:00 -- -- -- -- -- -- -- -- --
2019-11-16 23:00:00 -- -- -- -- -- -- -- -- --
2019-11-16 22:00:00 -- -- -- -- -- -- -- -- --
2019-11-16 21:00:00 -- -- -- -- -- -- -- -- --
2019-11-16 20:00:00 -- -- -- -- -- -- -- -- --
2019-11-16 19:00:00 -- -- -- -- -- -- -- -- --
2019-11-16 18:00:00 -- -- -- -- -- -- -- -- --
2019-11-16 17:00:00 -- -- -- -- -- -- -- -- --
2019-11-16 16:00:00 -- -- -- -- -- -- -- -- --
2019-11-16 15:00:00 -- -- -- -- -- -- -- -- --
2019-11-16 14:00:00 -- -- -- -- -- -- -- -- --
2019-11-16 13:00:00 -- -- -- -- -- -- -- -- --
2019-11-16 12:00:00 -- -- -- -- -- -- -- -- --
2019-11-16 11:00:00 -- 0 Calma -- -- 1 -- -- --
2019-11-16 10:00:00 -- 0 Calma -- -- 0.4 -- -- --
2019-11-16 09:00:00 -- 0 Calma -- -- 0 -- -- --
2019-11-16 08:00:00 -- 0 Calma -- -- 0 -- -- --
2019-11-16 07:00:00 -- 0 Calma -- -- 0 -- -- --
2019-11-16 06:00:00 -- 0 Calma -- -- 0 -- -- --
2019-11-16 05:00:00 -- 0 Calma -- -- 0 -- -- --
2019-11-16 04:00:00 -- 0 Calma -- -- 0 -- -- --
2019-11-16 03:00:00 -- 0 Calma -- -- 0 -- -- --
2019-11-16 02:00:00 -- 0 Calma -- -- 0 -- -- --
2019-11-16 01:00:00 -- 0 Calma -- -- 0 -- -- --
2019-11-16 00:00:00 -- 0 Calma -- -- 0 -- -- --